Time;durP1;ratioP1;P1;durP2;ratioP2;P2;SDS_P1;SDS_P2;PMS_P1;PMS_P2;Temp;Humidity;BMP_temperature;BMP_pressure;BME280_temperature;BME280_humidity;BME280_pressure;Samples;Min_cycle;Max_cycle;Signal;HPM_P1;HPM_P2
2024/01/01 00:00:45;;;;;;;91.50;41.67;;;17.50;67.10;;;;;;5080516;28;43446;-69
2024/01/01 00:03:17;;;;;;;76.63;38.07;;;17.40;67.10;;;;;;5078852;28;43435;-69
2024/01/01 00:05:46;;;;;;;69.03;36.80;;;17.40;67.20;;;;;;5083341;28;43412;-69
2024/01/01 00:08:14;;;;;;;74.57;37.37;;;17.40;67.30;;;;;;5081782;28;43599;-68
2024/01/01 00:10:44;;;;;;;81.83;36.90;;;17.40;67.50;;;;;;5091558;28;43403;-68
2024/01/01 00:13:12;;;;;;;78.63;37.60;;;17.40;67.60;;;;;;5079033;28;43798;-69
2024/01/01 00:15:40;;;;;;;73.67;35.50;;;17.40;67.60;;;;;;5090189;28;43763;-69
2024/01/01 00:18:08;;;;;;;66.33;34.27;;;17.40;67.70;;;;;;5084541;28;43614;-69
2024/01/01 00:20:36;;;;;;;65.17;34.30;;;17.40;67.80;;;;;;5080831;28;43343;-69
2024/01/01 00:23:06;;;;;;;58.27;32.07;;;17.40;67.90;;;;;;5075521;28;43509;-69
2024/01/01 00:25:36;;;;;;;68.77;34.97;;;17.30;67.90;;;;;;5073910;28;43349;-69
2024/01/01 00:28:05;;;;;;;61.20;32.10;;;17.40;67.90;;;;;;5076870;28;43860;-69
2024/01/01 00:30:34;;;;;;;65.03;32.70;;;17.40;67.80;;;;;;5078226;28;44733;-69
2024/01/01 00:33:02;;;;;;;60.40;32.27;;;17.50;67.70;;;;;;5078438;28;43467;-69
2024/01/01 00:35:30;;;;;;;60.10;32.20;;;17.60;67.30;;;;;;5081972;28;43424;-69
2024/01/01 00:37:58;;;;;;;59.93;31.13;;;17.60;67.00;;;;;;5082574;28;44204;-69
2024/01/01 00:40:27;;;;;;;55.63;31.00;;;17.60;67.10;;;;;;5077710;28;44584;-69
2024/01/01 00:42:55;;;;;;;53.77;30.23;;;17.60;67.20;;;;;;5079232;28;43931;-69
2024/01/01 00:45:24;;;;;;;48.30;29.63;;;17.60;67.20;;;;;;5081205;28;43562;-69
2024/01/01 00:48:04;;;;;;;46.47;27.13;;;17.60;67.30;;;;;;5087173;28;45525;-69
2024/01/01 00:50:33;;;;;;;41.33;26.10;;;17.50;67.40;;;;;;5076556;28;44699;-69
2024/01/01 00:53:01;;;;;;;41.80;25.63;;;17.50;67.60;;;;;;5079099;28;43439;-69
2024/01/01 00:55:31;;;;;;;44.63;27.60;;;17.50;67.80;;;;;;5082189;28;43467;-71
2024/01/01 00:57:59;;;;;;;44.03;26.00;;;17.40;67.80;;;;;;5057828;28;44901;-71
2024/01/01 01:00:28;;;;;;;41.73;25.83;;;17.40;67.70;;;;;;5047783;28;43851;-71
2024/01/01 01:02:56;;;;;;;40.30;24.37;;;17.40;67.80;;;;;;5051957;28;43542;-71
2024/01/01 01:05:24;;;;;;;38.13;24.07;;;17.40;67.90;;;;;;5060363;28;44040;-71
2024/01/01 01:07:52;;;;;;;38.40;24.10;;;17.40;68.00;;;;;;5064464;28;45928;-72
2024/01/01 01:10:20;;;;;;;37.07;24.13;;;17.30;68.00;;;;;;5052556;28;45177;-71
2024/01/01 01:12:53;;;;;;;36.37;23.23;;;17.30;68.00;;;;;;5051640;28;43522;-70
2024/01/01 01:15:23;;;;;;;36.60;23.40;;;17.30;68.00;;;;;;5058344;28;43384;-71
2024/01/01 01:17:51;;;;;;;33.27;22.50;;;17.30;68.10;;;;;;5049765;28;45840;-71
2024/01/01 01:20:20;;;;;;;31.90;20.70;;;17.30;68.10;;;;;;5053463;28;43529;-70
2024/01/01 01:22:48;;;;;;;31.80;21.23;;;17.30;68.20;;;;;;5052364;28;43371;-71
2024/01/01 01:25:16;;;;;;;33.13;21.97;;;17.30;68.20;;;;;;5053310;28;43455;-71
2024/01/01 01:27:44;;;;;;;32.83;21.80;;;17.30;68.20;;;;;;5064561;28;45666;-71
2024/01/01 01:30:14;;;;;;;33.17;21.13;;;17.30;68.00;;;;;;5057367;28;44784;-71
2024/01/01 01:32:42;;;;;;;30.20;20.40;;;17.40;67.90;;;;;;5049457;28;44091;-71
2024/01/01 01:35:11;;;;;;;28.37;20.47;;;17.50;67.50;;;;;;5064972;28;43465;-71
2024/01/01 01:37:39;;;;;;;28.47;19.40;;;17.50;67.50;;;;;;5051312;28;44009;-71
2024/01/01 01:40:08;;;;;;;27.37;20.03;;;17.50;67.60;;;;;;5051516;28;44408;-71
2024/01/01 01:42:36;;;;;;;24.13;19.17;;;17.50;67.70;;;;;;5052392;28;44033;-71
2024/01/01 01:45:05;;;;;;;23.80;18.03;;;17.50;67.60;;;;;;5052636;28;43490;-71
2024/01/01 01:47:35;;;;;;;23.27;17.93;;;17.40;67.60;;;;;;5053498;28;43744;-71
2024/01/01 01:50:06;;;;;;;21.90;17.63;;;17.40;67.80;;;;;;5049792;28;43936;-71
2024/01/01 01:52:35;;;;;;;20.23;16.60;;;17.40;67.90;;;;;;5065034;28;43769;-71
2024/01/01 01:55:04;;;;;;;24.13;17.33;;;17.40;68.10;;;;;;5063723;28;43918;-71
2024/01/01 01:57:32;;;;;;;23.07;17.40;;;17.30;68.00;;;;;;5057706;28;45984;-71
2024/01/01 02:00:00;;;;;;;22.07;16.60;;;17.40;68.00;;;;;;5050282;28;45067;-71
2024/01/01 02:02:39;;;;;;;18.27;15.87;;;17.30;68.00;;;;;;5054036;28;43828;-71
2024/01/01 02:05:12;;;;;;;17.77;15.57;;;17.30;68.10;;;;;;5056998;28;43808;-71
2024/01/01 02:07:41;;;;;;;17.50;15.47;;;17.30;68.20;;;;;;5084212;28;45463;-68
2024/01/01 02:10:09;;;;;;;18.50;15.60;;;17.30;68.30;;;;;;5082072;27;44750;-68
2024/01/01 02:12:40;;;;;;;20.80;15.40;;;17.30;68.30;;;;;;5082506;28;43489;-68
2024/01/01 02:15:10;;;;;;;18.27;14.87;;;17.30;68.00;;;;;;5088453;28;43562;-68
2024/01/01 02:17:39;;;;;;;17.97;14.53;;;17.30;68.00;;;;;;5082534;28;45961;-69
2024/01/01 02:20:08;;;;;;;18.43;15.03;;;17.40;67.70;;;;;;5084784;28;45036;-69
2024/01/01 02:22:47;;;;;;;16.87;14.63;;;17.40;67.50;;;;;;5080647;28;43724;-68
2024/01/01 02:25:17;;;;;;;16.40;14.10;;;17.40;67.70;;;;;;5074452;28;43539;-69
2024/01/01 02:27:45;;;;;;;18.37;14.60;;;17.40;67.80;;;;;;5082459;28;45302;-69
2024/01/01 02:30:13;;;;;;;18.60;14.23;;;17.40;67.70;;;;;;5088340;28;44756;-68
2024/01/01 02:32:41;;;;;;;15.10;12.90;;;17.40;67.90;;;;;;5084187;28;43463;-68
2024/01/01 02:35:09;;;;;;;14.87;13.27;;;17.40;68.00;;;;;;5082755;28;43482;-69
2024/01/01 02:37:38;;;;;;;13.83;12.47;;;17.40;68.10;;;;;;5091187;28;43681;-68
2024/01/01 02:40:08;;;;;;;14.67;12.77;;;17.30;68.10;;;;;;5081025;28;43411;-69
2024/01/01 02:42:37;;;;;;;14.43;12.87;;;17.30;68.10;;;;;;5085272;28;43449;-69
2024/01/01 02:45:07;;;;;;;16.07;12.40;;;17.30;68.00;;;;;;5082146;28;43447;-69
2024/01/01 02:47:37;;;;;;;12.97;11.70;;;17.30;68.20;;;;;;5086457;28;43827;-69
2024/01/01 02:50:07;;;;;;;13.80;11.90;;;17.30;68.30;;;;;;5082674;28;43369;-69
2024/01/01 02:52:35;;;;;;;12.53;11.33;;;17.30;68.30;;;;;;5082976;28;43578;-69
2024/01/01 02:55:04;;;;;;;12.80;11.53;;;17.30;68.40;;;;;;5086100;28;44343;-69
2024/01/01 02:57:32;;;;;;;12.70;11.50;;;17.20;68.30;;;;;;5077709;28;45417;-69
2024/01/01 03:00:01;;;;;;;12.97;11.63;;;17.20;68.10;;;;;;5081791;28;44641;-68
2024/01/01 03:02:29;;;;;;;15.47;11.77;;;17.30;68.00;;;;;;5081784;28;43418;-69
2024/01/01 03:04:57;;;;;;;12.60;11.00;;;17.40;67.80;;;;;;5076851;28;43384;-69
2024/01/01 03:07:26;;;;;;;12.00;10.80;;;17.50;67.60;;;;;;5079810;28;45993;-68
2024/01/01 03:09:54;;;;;;;12.10;10.73;;;17.50;67.70;;;;;;5075230;28;45105;-69
2024/01/01 03:12:22;;;;;;;11.53;10.40;;;17.40;67.70;;;;;;5074152;28;43500;-69
2024/01/01 03:14:50;;;;;;;11.53;10.33;;;17.40;67.70;;;;;;5081031;28;43421;-69
2024/01/01 03:17:19;;;;;;;10.67;9.67;;;17.40;67.70;;;;;;5094738;28;46005;-68
2024/01/01 03:19:47;;;;;;;10.13;9.13;;;17.40;68.60;;;;;;5074725;28;44768;-68
2024/01/01 03:22:15;;;;;;;9.63;8.83;;;17.40;68.10;;;;;;5076315;28;43411;-68
2024/01/01 03:24:43;;;;;;;10.43;9.53;;;17.40;68.20;;;;;;5081148;28;43445;-68
2024/01/01 03:27:11;;;;;;;10.17;9.27;;;17.30;68.20;;;;;;5076671;28;43590;-69
2024/01/01 03:29:39;;;;;;;10.90;9.83;;;17.30;68.10;;;;;;5081575;28;43363;-69
2024/01/01 03:32:07;;;;;;;9.70;8.90;;;17.30;68.30;;;;;;5075927;28;43457;-69
2024/01/01 03:34:37;;;;;;;9.90;9.00;;;17.30;68.30;;;;;;5073842;28;43491;-69
2024/01/01 03:37:05;;;;;;;8.93;8.23;;;17.20;69.00;;;;;;5083020;28;45576;-68
2024/01/01 03:39:33;;;;;;;8.80;8.00;;;17.30;68.40;;;;;;5087381;28;44504;-68
2024/01/01 03:42:01;;;;;;;9.10;8.30;;;17.20;69.20;;;;;;5080879;28;43525;-69
2024/01/01 03:44:29;;;;;;;9.60;8.80;;;17.20;68.30;;;;;;5075580;28;43453;-69
2024/01/01 03:46:57;;;;;;;9.60;8.70;;;17.20;68.20;;;;;;5078904;28;46264;-69
2024/01/01 03:49:28;;;;;;;9.40;8.60;;;17.30;68.00;;;;;;5075421;28;43362;-68
2024/01/01 03:51:58;;;;;;;9.10;8.20;;;17.40;67.70;;;;;;5081840;28;43387;-69
2024/01/01 03:54:25;;;;;;;8.17;7.50;;;17.40;67.80;;;;;;5082441;28;43883;-68
2024/01/01 03:56:54;;;;;;;8.90;8.10;;;17.40;68.00;;;;;;5079325;28;45878;-69
2024/01/01 03:59:22;;;;;;;9.40;8.50;;;17.40;67.90;;;;;;5088695;28;44319;-69
2024/01/01 04:01:50;;;;;;;7.93;7.33;;;17.30;67.70;;;;;;5087251;28;43498;-68
2024/01/01 04:04:18;;;;;;;7.77;7.17;;;17.30;68.00;;;;;;5077702;28;43521;-68
2024/01/01 04:06:47;;;;;;;7.47;6.87;;;17.30;68.10;;;;;;5072661;28;46007;-69
2024/01/01 04:09:16;;;;;;;7.57;7.07;;;17.30;68.30;;;;;;5081099;28;44802;-69
2024/01/01 04:11:44;;;;;;;7.97;7.40;;;17.30;68.30;;;;;;5081081;28;43420;-69
2024/01/01 04:14:13;;;;;;;7.70;7.10;;;17.20;68.30;;;;;;5091421;28;43383;-69
2024/01/01 04:16:41;;;;;;;7.40;6.80;;;17.30;68.20;;;;;;5078043;28;43615;-69
2024/01/01 04:19:09;;;;;;;7.10;6.60;;;17.20;68.30;;;;;;5078085;28;43387;-69
2024/01/01 04:21:39;;;;;;;7.30;6.80;;;17.20;68.30;;;;;;5087348;28;43348;-68
2024/01/01 04:24:07;;;;;;;7.10;6.60;;;17.30;68.50;;;;;;5084398;28;43453;-69
2024/01/01 04:26:38;;;;;;;7.30;6.70;;;17.20;68.50;;;;;;5079945;28;43591;-68
2024/01/01 04:29:06;;;;;;;6.70;6.20;;;17.20;68.50;;;;;;5077026;28;43391;-68
2024/01/01 04:31:34;;;;;;;6.87;6.27;;;17.20;68.30;;;;;;5077055;28;43430;-69
2024/01/01 04:34:02;;;;;;;6.87;6.27;;;17.20;68.10;;;;;;5077486;28;43395;-68
2024/01/01 04:36:32;;;;;;;6.93;6.47;;;17.30;67.80;;;;;;5061264;28;45385;-71
2024/01/01 04:39:03;;;;;;;6.70;6.20;;;17.40;67.70;;;;;;5056540;28;44074;-71
2024/01/01 04:41:31;;;;;;;6.57;6.13;;;17.40;67.90;;;;;;5054861;28;43507;-71
2024/01/01 04:44:01;;;;;;;6.57;6.07;;;17.40;68.00;;;;;;5058128;28;43413;-71
2024/01/01 04:46:29;;;;;;;6.23;5.83;;;17.30;67.70;;;;;;5054221;28;43618;-71
2024/01/01 04:48:57;;;;;;;6.27;5.77;;;17.30;67.70;;;;;;5062682;28;43879;-71
2024/01/01 04:51:25;;;;;;;5.87;5.57;;;17.40;68.00;;;;;;5063710;28;43477;-71
2024/01/01 04:53:53;;;;;;;6.03;5.57;;;17.30;68.00;;;;;;5062824;28;43512;-71
2024/01/01 04:56:23;;;;;;;5.73;5.33;;;17.30;68.10;;;;;;5058899;28;43619;-71
2024/01/01 04:58:52;;;;;;;5.50;5.10;;;17.30;68.20;;;;;;5056044;28;43349;-71
2024/01/01 05:01:22;;;;;;;5.17;4.87;;;17.30;68.20;;;;;;5052738;28;43479;-70
2024/01/01 05:03:50;;;;;;;5.47;5.17;;;17.20;68.10;;;;;;5052312;28;43471;-70
2024/01/01 05:06:18;;;;;;;5.50;5.30;;;17.30;68.30;;;;;;5048207;28;43623;-70
2024/01/01 05:08:46;;;;;;;5.33;4.93;;;17.20;68.30;;;;;;5056670;28;43380;-70
2024/01/01 05:11:16;;;;;;;5.43;5.13;;;17.20;68.40;;;;;;5049806;28;43299;-70
2024/01/01 05:13:45;;;;;;;5.83;5.43;;;17.20;68.40;;;;;;5061074;28;44133;-70
2024/01/01 05:16:14;;;;;;;5.37;5.10;;;17.20;68.30;;;;;;5055574;28;44026;-70
2024/01/01 05:18:43;;;;;;;5.40;5.10;;;17.20;68.10;;;;;;5049696;28;44710;-70
2024/01/01 05:21:11;;;;;;;5.30;5.00;;;17.30;68.00;;;;;;5052675;28;43419;-69
2024/01/01 05:23:39;;;;;;;5.47;5.17;;;17.40;67.60;;;;;;5056741;28;43959;-70
2024/01/01 05:26:07;;;;;;;4.53;4.33;;;17.40;67.50;;;;;;5054991;28;43946;-70
2024/01/01 05:28:36;;;;;;;5.03;4.83;;;17.40;67.70;;;;;;5057939;28;43445;-71
2024/01/01 05:31:05;;;;;;;4.77;4.57;;;17.40;67.70;;;;;;5054520;28;43437;-71
2024/01/01 05:33:33;;;;;;;5.17;4.97;;;17.30;67.50;;;;;;5056652;28;43470;-71
2024/01/01 05:36:02;;;;;;;5.07;4.73;;;17.30;67.70;;;;;;5053910;28;44096;-76
2024/01/01 05:38:30;;;;;;;4.50;4.23;;;17.30;67.90;;;;;;5065193;28;43368;-71
2024/01/01 05:40:58;;;;;;;4.33;4.13;;;17.30;68.00;;;;;;5060226;28;43324;-71
2024/01/01 05:43:26;;;;;;;4.80;4.50;;;17.30;68.10;;;;;;5059758;28;43491;-71
2024/01/01 05:45:54;;;;;;;4.47;4.27;;;17.30;68.00;;;;;;5052760;28;44458;-71
2024/01/01 05:48:22;;;;;;;4.47;4.27;;;17.30;68.00;;;;;;5057162;28;43644;-71
2024/01/01 05:50:59;;;;;;;4.30;4.20;;;17.20;68.10;;;;;;5057612;28;43616;-71
2024/01/01 05:53:29;;;;;;;4.40;4.20;;;17.20;68.20;;;;;;5059032;28;43454;-71
2024/01/01 05:55:57;;;;;;;4.10;3.90;;;17.20;68.30;;;;;;5060125;28;43784;-72
2024/01/01 05:58:25;;;;;;;4.10;3.90;;;17.20;68.30;;;;;;5058205;28;43408;-71
2024/01/01 06:00:53;;;;;;;4.10;4.00;;;17.20;68.30;;;;;;5062572;28;43512;-71
2024/01/01 06:03:21;;;;;;;4.00;3.80;;;17.20;68.20;;;;;;5059725;28;43949;-71
2024/01/01 06:05:49;;;;;;;4.63;4.30;;;17.30;68.00;;;;;;5056852;28;43707;-71
2024/01/01 06:08:17;;;;;;;4.47;4.17;;;17.30;67.70;;;;;;5057682;28;43917;-71
2024/01/01 06:10:47;;;;;;;3.60;3.50;;;17.40;67.60;;;;;;5056377;28;43390;-71
2024/01/01 06:13:15;;;;;;;3.60;3.50;;;17.40;67.70;;;;;;5062104;28;43550;-71
2024/01/01 06:15:43;;;;;;;3.90;3.80;;;17.30;67.80;;;;;;5061274;28;43638;-70
2024/01/01 06:18:11;;;;;;;4.03;3.83;;;17.30;67.70;;;;;;5055826;28;45105;-70
2024/01/01 06:20:40;;;;;;;4.07;3.87;;;17.30;67.70;;;;;;5064931;28;44001;-71
2024/01/01 06:23:08;;;;;;;3.63;3.47;;;17.30;67.90;;;;;;5057572;28;43457;-70
2024/01/01 06:25:38;;;;;;;3.50;3.30;;;17.30;68.00;;;;;;5055407;28;44038;-70
2024/01/01 06:28:08;;;;;;;3.60;3.50;;;17.20;68.00;;;;;;5054717;28;43913;-70
2024/01/01 06:30:36;;;;;;;3.40;3.30;;;17.20;68.20;;;;;;5058645;28;43399;-70
2024/01/01 06:33:04;;;;;;;4.00;3.80;;;17.20;68.20;;;;;;5062100;28;43394;-70
2024/01/01 06:35:32;;;;;;;4.00;3.70;;;17.20;68.10;;;;;;5062007;28;44032;-72
2024/01/01 06:38:04;;;;;;;3.27;3.17;;;17.20;68.30;;;;;;5064358;28;43838;-70
2024/01/01 06:40:35;;;;;;;3.80;3.60;;;17.20;68.30;;;;;;5053394;28;43340;-72
2024/01/01 06:43:06;;;;;;;3.37;3.27;;;17.20;68.30;;;;;;5056468;28;43494;-70
2024/01/01 06:45:37;;;;;;;5.47;3.50;;;17.20;68.40;;;;;;5067292;28;43673;-71
2024/01/01 06:48:06;;;;;;;3.27;3.10;;;17.10;68.20;;;;;;5058252;28;44105;-70
2024/01/01 06:50:34;;;;;;;3.20;3.10;;;17.20;68.10;;;;;;5057071;28;43437;-70
2024/01/01 06:53:04;;;;;;;3.17;3.07;;;17.20;67.90;;;;;;5064137;28;43865;-70
2024/01/01 06:55:33;;;;;;;3.40;3.20;;;17.30;67.50;;;;;;5061524;28;43606;-69
2024/01/01 06:58:01;;;;;;;2.73;2.63;;;17.30;67.50;;;;;;5064426;28;44755;-69
2024/01/01 07:00:29;;;;;;;3.20;3.10;;;17.30;67.70;;;;;;5067235;28;43343;-70
2024/01/01 07:03:02;;;;;;;3.17;3.07;;;17.30;67.60;;;;;;5072948;28;43438;-71
2024/01/01 07:05:30;;;;;;;3.00;2.90;;;17.30;67.40;;;;;;5068525;28;43701;-70
2024/01/01 07:07:59;;;;;;;3.00;2.80;;;17.30;67.70;;;;;;5067809;28;43490;-70
2024/01/01 07:10:27;;;;;;;2.90;2.80;;;17.30;67.80;;;;;;5066417;28;43515;-71
2024/01/01 07:12:55;;;;;;;2.87;2.77;;;17.20;67.90;;;;;;5061706;28;43455;-70
2024/01/01 07:15:23;;;;;;;2.93;2.77;;;17.20;68.00;;;;;;5072143;28;44059;-70
2024/01/01 07:17:51;;;;;;;3.47;3.27;;;17.20;68.10;;;;;;5068988;28;43395;-70
2024/01/01 07:20:21;;;;;;;3.40;3.30;;;17.20;67.90;;;;;;5070221;28;43359;-70
2024/01/01 07:22:49;;;;;;;2.70;2.60;;;17.20;68.00;;;;;;5062460;28;43316;-70
2024/01/01 07:25:17;;;;;;;2.80;2.70;;;17.20;68.20;;;;;;5071496;28;44671;-70
2024/01/01 07:27:45;;;;;;;2.53;2.50;;;17.20;68.30;;;;;;5062140;28;43391;-70
2024/01/01 07:30:14;;;;;;;2.80;2.70;;;17.20;68.30;;;;;;5070273;28;43391;-70
2024/01/01 07:32:42;;;;;;;3.10;2.90;;;17.20;68.30;;;;;;5066634;28;43408;-70
2024/01/01 07:35:10;;;;;;;3.13;2.93;;;17.20;68.00;;;;;;5060027;28;43862;-70
2024/01/01 07:37:40;;;;;;;2.70;2.60;;;17.20;68.50;;;;;;5064701;28;43432;-70
2024/01/01 07:40:09;;;;;;;3.13;2.90;;;17.30;67.60;;;;;;5075431;28;43399;-70
2024/01/01 07:42:37;;;;;;;2.70;2.60;;;17.30;67.40;;;;;;5072762;28;43416;-70
2024/01/01 07:45:05;;;;;;;2.70;2.60;;;17.40;67.60;;;;;;5065504;28;43757;-70
2024/01/01 07:47:33;;;;;;;2.90;2.70;;;17.30;67.70;;;;;;5057206;28;43416;-70
2024/01/01 07:50:02;;;;;;;2.73;2.53;;;17.30;67.50;;;;;;5059994;28;43544;-70
2024/01/01 07:52:30;;;;;;;3.07;2.87;;;17.30;67.50;;;;;;5068743;28;43597;-70
2024/01/01 07:54:59;;;;;;;2.40;2.40;;;17.30;67.70;;;;;;5071880;28;43936;-71
2024/01/01 07:57:27;;;;;;;2.37;2.27;;;17.30;67.90;;;;;;5065371;28;43398;-70
2024/01/01 07:59:58;;;;;;;2.33;2.23;;;17.30;68.00;;;;;;5061428;28;43451;-70
2024/01/01 08:02:26;;;;;;;2.43;2.33;;;17.20;68.00;;;;;;5066276;28;43672;-70
2024/01/01 08:04:54;;;;;;;2.30;2.20;;;17.20;68.00;;;;;;5058881;28;43839;-70
2024/01/01 08:07:22;;;;;;;2.77;2.67;;;17.20;67.80;;;;;;5066495;28;43854;-71
2024/01/01 08:09:50;;;;;;;2.67;2.57;;;17.20;68.00;;;;;;5060162;28;43452;-71
2024/01/01 08:12:20;;;;;;;2.43;2.33;;;17.20;68.10;;;;;;5054427;28;43422;-71
2024/01/01 08:14:48;;;;;;;2.20;2.10;;;17.20;68.20;;;;;;5061405;28;43619;-71
2024/01/01 08:17:16;;;;;;;2.60;2.50;;;17.20;68.20;;;;;;5054181;28;43518;-71
2024/01/01 08:19:44;;;;;;;2.57;2.47;;;17.20;68.10;;;;;;5056571;28;43461;-71
2024/01/01 08:22:13;;;;;;;2.57;2.37;;;17.20;67.90;;;;;;5059080;28;43526;-71
2024/01/01 08:24:41;;;;;;;2.40;2.23;;;17.20;67.70;;;;;;5056415;28;43963;-71
2024/01/01 08:27:09;;;;;;;2.37;2.27;;;17.20;67.40;;;;;;5053519;28;43415;-71
2024/01/01 08:29:38;;;;;;;2.20;2.10;;;17.30;67.70;;;;;;5056136;28;43411;-71
2024/01/01 08:32:06;;;;;;;2.77;2.63;;;17.30;67.80;;;;;;5052409;28;43467;-71
2024/01/01 08:34:35;;;;;;;2.20;2.10;;;17.30;67.90;;;;;;5052149;28;43770;-71
2024/01/01 08:37:04;;;;;;;2.40;2.30;;;17.20;67.70;;;;;;5061774;28;43450;-71
2024/01/01 08:39:32;;;;;;;2.30;2.10;;;17.20;67.80;;;;;;5066555;28;43451;-71
2024/01/01 08:42:00;;;;;;;2.20;2.10;;;17.20;68.00;;;;;;5051603;28;43535;-71
2024/01/01 08:44:28;;;;;;;1.80;1.80;;;17.20;68.00;;;;;;5063517;28;43637;-71
2024/01/01 08:46:57;;;;;;;2.37;2.27;;;17.20;68.10;;;;;;5061137;28;43349;-78
2024/01/01 08:49:25;;;;;;;2.30;2.20;;;17.20;68.10;;;;;;5054800;28;43439;-71
2024/01/01 08:51:53;;;;;;;2.20;2.10;;;17.20;68.00;;;;;;5057699;28;43471;-70
2024/01/01 08:54:22;;;;;;;2.30;2.13;;;17.20;67.70;;;;;;5064121;28;43624;-71
2024/01/01 08:56:50;;;;;;;2.37;2.23;;;17.30;67.50;;;;;;5058663;28;43442;-71
2024/01/01 08:59:18;;;;;;;2.00;1.90;;;17.30;67.30;;;;;;5059779;28;43316;-71
2024/01/01 09:01:47;;;;;;;2.30;2.20;;;17.30;67.40;;;;;;5065128;28;43601;-71
2024/01/01 09:04:17;;;;;;;1.90;1.90;;;17.30;67.60;;;;;;5052741;28;43911;-71
2024/01/01 09:06:45;;;;;;;3.10;2.23;;;17.30;67.70;;;;;;5052983;28;43370;-71
2024/01/01 09:09:13;;;;;;;2.10;2.00;;;17.30;67.70;;;;;;5058598;28;43896;-71
2024/01/01 09:11:47;;;;;;;2.10;2.00;;;17.20;67.80;;;;;;5055383;28;43470;-71
2024/01/01 09:14:15;;;;;;;2.10;2.00;;;17.20;67.90;;;;;;5057253;28;46019;-71
2024/01/01 09:16:43;;;;;;;2.50;2.40;;;17.20;68.00;;;;;;5073769;28;43428;-71
2024/01/01 09:19:11;;;;;;;2.23;2.13;;;17.20;68.10;;;;;;5070560;27;43365;-71
2024/01/01 09:21:40;;;;;;;2.20;2.10;;;17.20;68.10;;;;;;5074183;27;43979;-71
2024/01/01 09:24:09;;;;;;;2.23;2.13;;;17.20;68.10;;;;;;5073736;28;43613;-71
2024/01/01 09:26:37;;;;;;;1.83;1.80;;;17.20;68.20;;;;;;5073892;27;44485;-71
2024/01/01 09:29:05;;;;;;;1.77;1.77;;;17.20;68.30;;;;;;5078800;27;43506;-71
2024/01/01 09:31:33;;;;;;;2.03;1.93;;;17.20;68.30;;;;;;5073056;28;43612;-71
2024/01/01 09:34:03;;;;;;;2.00;1.90;;;17.10;68.20;;;;;;5072990;28;43870;-71
2024/01/01 09:36:31;;;;;;;2.27;2.17;;;17.10;68.30;;;;;;5072512;27;43431;-71
2024/01/01 09:39:00;;;;;;;1.73;1.70;;;17.10;68.10;;;;;;5073971;28;43328;-71
2024/01/01 09:41:28;;;;;;;1.90;1.80;;;17.20;68.00;;;;;;5078080;28;43534;-71
2024/01/01 09:43:56;;;;;;;2.00;1.90;;;17.30;67.70;;;;;;5073034;28;43598;-71
2024/01/01 09:46:28;;;;;;;2.63;2.03;;;17.40;67.50;;;;;;5071866;27;43932;-71
2024/01/01 09:48:56;;;;;;;1.90;1.90;;;17.30;67.60;;;;;;5070436;28;43456;-71
2024/01/01 09:51:24;;;;;;;2.20;2.10;;;17.30;67.70;;;;;;5073811;28;43405;-71
2024/01/01 09:53:53;;;;;;;2.37;2.10;;;17.30;67.60;;;;;;5075669;27;44933;-71
2024/01/01 09:56:22;;;;;;;2.33;2.03;;;17.20;67.60;;;;;;5073118;28;44038;-71
2024/01/01 09:58:50;;;;;;;1.70;1.70;;;17.30;67.90;;;;;;5074230;27;43411;-71
2024/01/01 10:01:19;;;;;;;2.40;2.20;;;17.20;68.00;;;;;;5074691;27;43399;-71
2024/01/01 10:04:00;;;;;;;3.13;1.87;;;17.20;68.00;;;;;;5074300;27;43836;-71
2024/01/01 10:06:28;;;;;;;2.63;2.30;;;17.20;68.10;;;;;;5076456;28;43874;-71
2024/01/01 10:09:06;;;;;;;2.47;2.00;;;17.20;68.00;;;;;;5069222;28;43437;-71
2024/01/01 10:11:35;;;;;;;1.50;1.50;;;17.20;68.80;;;;;;5053163;28;43424;-71
2024/01/01 10:14:04;;;;;;;1.50;1.50;;;17.20;68.20;;;;;;5066959;28;43893;-71
2024/01/01 10:16:32;;;;;;;2.00;1.70;;;17.10;68.20;;;;;;5060325;28;43947;-71
2024/01/01 10:19:00;;;;;;;1.87;1.87;;;17.20;68.30;;;;;;5059716;28;43447;-71
2024/01/01 10:21:29;;;;;;;2.60;2.10;;;17.10;68.90;;;;;;5064507;28;43431;-71
2024/01/01 10:23:57;;;;;;;2.20;2.00;;;17.10;68.20;;;;;;5052915;28;43640;-71
2024/01/01 10:26:30;;;;;;;2.03;1.93;;;17.10;68.00;;;;;;5069482;28;43392;-68
2024/01/01 10:28:59;;;;;;;2.60;1.80;;;17.20;67.80;;;;;;5082366;28;43490;-68
2024/01/01 10:31:29;;;;;;;1.90;1.80;;;17.30;67.60;;;;;;5083455;28;43558;-69
2024/01/01 10:33:59;;;;;;;1.73;1.73;;;17.30;67.40;;;;;;5086008;28;43780;-68
2024/01/01 10:36:27;;;;;;;2.10;2.00;;;17.30;67.70;;;;;;5080515;28;43401;-69
2024/01/01 10:38:55;;;;;;;2.17;2.07;;;17.20;67.70;;;;;;5086951;28;43382;-69
2024/01/01 10:41:26;;;;;;;1.60;1.60;;;17.20;67.70;;;;;;5082121;28;43393;-69
2024/01/01 10:43:55;;;;;;;1.77;1.67;;;17.20;67.70;;;;;;5086520;28;43809;-69
2024/01/01 10:46:24;;;;;;;1.77;1.70;;;17.20;67.90;;;;;;5076825;28;43419;-69
2024/01/01 10:48:54;;;;;;;2.03;1.90;;;17.20;68.00;;;;;;5091255;28;43452;-68
2024/01/01 10:51:41;;;;;;;1.87;1.77;;;17.20;68.20;;;;;;5078732;28;44054;-68
2024/01/01 10:54:30;;;;;;;1.97;1.87;;;17.20;68.30;;;;;;5084880;28;43694;-68
2024/01/01 10:57:08;;;;;;;2.30;2.10;;;17.10;68.10;;;;;;5088179;28;44274;-68
2024/01/01 10:59:40;;;;;;;1.93;1.83;;;17.10;68.40;;;;;;5081099;28;43445;-68
2024/01/01 11:02:09;;;;;;;3.47;3.17;;;17.20;68.60;;;;;;5078356;28;43857;-68
2024/01/01 11:04:37;;;;;;;6.47;4.97;;;17.20;68.50;;;;;;5082561;28;43618;-68
2024/01/01 11:07:05;;;;;;;4.17;2.87;;;17.10;69.10;;;;;;5074254;28;43346;-68
2024/01/01 11:09:34;;;;;;;4.13;2.70;;;17.10;68.50;;;;;;5083367;28;43391;-68
2024/01/01 11:12:05;;;;;;;4.97;3.80;;;17.20;68.50;;;;;;5087425;28;43466;-68
2024/01/01 11:14:37;;;;;;;8.37;3.90;;;17.20;68.50;;;;;;5083346;28;43889;-68
2024/01/01 11:17:06;;;;;;;3.23;3.03;;;17.20;68.60;;;;;;5082211;28;43332;-68
2024/01/01 11:19:36;;;;;;;3.83;3.53;;;17.20;68.70;;;;;;5072964;28;43430;-68
2024/01/01 11:22:30;;;;;;;4.27;3.20;;;17.20;68.70;;;;;;5079806;28;43596;-68
2024/01/01 11:25:00;;;;;;;4.57;4.17;;;17.20;68.70;;;;;;5075785;28;43616;-68
2024/01/01 11:27:31;;;;;;;7.73;5.37;;;17.20;68.70;;;;;;5081220;28;43410;-68
2024/01/01 11:30:02;;;;;;;10.27;6.27;;;17.20;68.60;;;;;;5075196;28;43422;-68
2024/01/01 11:32:31;;;;;;;9.33;6.43;;;17.30;68.50;;;;;;5075683;28;44101;-69
2024/01/01 11:35:11;;;;;;;9.40;6.57;;;17.40;68.10;;;;;;5076818;28;43867;-68
2024/01/01 11:37:41;;;;;;;7.33;6.07;;;17.50;67.70;;;;;;5061416;28;43458;-71
2024/01/01 11:40:10;;;;;;;8.90;6.10;;;17.40;67.60;;;;;;5058456;28;43429;-71
2024/01/01 11:42:38;;;;;;;13.17;6.30;;;17.40;67.70;;;;;;5055857;28;43458;-71
2024/01/01 11:45:10;;;;;;;7.90;6.80;;;17.40;67.70;;;;;;5059974;28;45040;-71
2024/01/01 11:47:38;;;;;;;9.73;6.83;;;17.40;67.80;;;;;;5060515;28;43479;-71
2024/01/01 11:50:07;;;;;;;9.20;6.27;;;17.40;68.10;;;;;;5068619;28;44045;-73
2024/01/01 11:52:37;;;;;;;7.80;6.30;;;17.40;68.40;;;;;;5055162;28;44222;-71
2024/01/01 11:55:05;;;;;;;8.93;6.37;;;17.30;68.40;;;;;;5056392;28;43768;-71
2024/01/01 11:57:34;;;;;;;10.67;6.50;;;17.30;68.50;;;;;;5055234;28;43950;-71
2024/01/01 12:00:02;;;;;;;11.37;6.97;;;17.20;68.30;;;;;;5065740;28;44068;-71
2024/01/01 12:02:36;;;;;;;8.53;6.20;;;17.20;68.30;;;;;;5063162;28;43402;-71
2024/01/01 12:05:04;;;;;;;9.47;6.93;;;17.20;68.50;;;;;;5056158;28;43690;-71
2024/01/01 12:07:33;;;;;;;9.93;6.10;;;17.20;68.60;;;;;;5066457;28;43496;-72
2024/01/01 12:10:07;;;;;;;8.10;5.87;;;17.20;68.80;;;;;;5066665;28;43432;-72
2024/01/01 12:12:39;;;;;;;8.20;6.10;;;17.20;68.90;;;;;;5063503;28;43504;-72
2024/01/01 12:15:09;;;;;;;8.20;6.30;;;17.20;68.70;;;;;;5075590;28;44046;-71
2024/01/01 12:17:43;;;;;;;6.73;5.40;;;17.20;69.50;;;;;;5074910;27;43473;-71
2024/01/01 12:20:15;;;;;;;7.67;6.00;;;17.20;68.80;;;;;;5064841;28;43415;-71
2024/01/01 12:22:44;;;;;;;7.83;5.87;;;17.20;68.90;;;;;;5060181;27;44098;-71
2024/01/01 12:25:16;;;;;;;5.83;5.23;;;17.20;68.90;;;;;;5061651;28;43850;-71
2024/01/01 12:27:45;;;;;;;8.93;5.67;;;17.20;69.00;;;;;;5061622;28;43521;-70
2024/01/01 12:30:27;;;;;;;6.23;5.63;;;17.20;69.00;;;;;;5064231;28;43362;-72
2024/01/01 12:32:57;;;;;;;7.97;5.50;;;17.20;68.80;;;;;;5061255;28;43619;-71
2024/01/01 12:35:25;;;;;;;9.63;5.50;;;17.30;68.50;;;;;;5075415;28;43764;-70
2024/01/01 12:37:54;;;;;;;9.83;5.07;;;17.40;68.20;;;;;;5066150;28;43464;-70
2024/01/01 12:40:25;;;;;;;5.87;5.20;;;17.40;68.20;;;;;;5062514;28;43407;-70
2024/01/01 12:42:53;;;;;;;6.97;5.10;;;17.40;68.30;;;;;;5058776;28;43988;-70
2024/01/01 12:45:21;;;;;;;6.37;5.13;;;17.40;68.50;;;;;;5058561;28;43680;-70
2024/01/01 12:47:51;;;;;;;6.07;4.80;;;17.30;68.20;;;;;;5072517;27;43787;-70
2024/01/01 12:50:19;;;;;;;5.87;4.57;;;17.30;68.40;;;;;;5059671;28;43904;-70